Time;durP1;ratioP1;P1;durP2;ratioP2;P2;SDS_P1;SDS_P2;PMS_P1;PMS_P2;Temp;Humidity;BMP_temperature;BMP_pressure;BME280_temperature;BME280_humidity;BME280_pressure;Samples;Min_cycle;Max_cycle;Signal;HPM_P1;HPM_P2
2021/04/20 00:02:12;;;;;;;39.83;29.13;;;;;;;10.57;55.76;101813.84;4914627;28;115548;-72
2021/04/20 00:04:39;;;;;;;42.47;29.67;;;;;;;10.55;56.02;101815.69;4900229;28;123458;-72
2021/04/20 00:07:07;;;;;;;36.70;26.88;;;;;;;10.53;55.80;101817.50;4908431;28;123886;-72
2021/04/20 00:09:34;;;;;;;31.60;23.17;;;;;;;10.51;55.26;101809.59;4918424;28;113497;-71
2021/04/20 00:12:00;;;;;;;31.42;22.15;;;;;;;10.49;55.80;101810.53;4908379;28;112896;-72
2021/04/20 00:14:27;;;;;;;32.22;22.60;;;;;;;10.47;55.54;101807.06;4911097;28;123691;-72
2021/04/20 00:16:54;;;;;;;31.88;22.52;;;;;;;10.43;55.48;101805.44;4898920;28;124876;-71
2021/04/20 00:19:21;;;;;;;27.38;21.48;;;;;;;10.39;55.58;101809.09;4890172;28;114470;-72
2021/04/20 00:21:48;;;;;;;30.73;22.90;;;;;;;10.36;55.51;101809.16;4908758;28;114073;-72
2021/04/20 00:24:14;;;;;;;30.73;21.70;;;;;;;10.33;55.60;101800.41;4897680;28;124343;-72
2021/04/20 00:26:41;;;;;;;24.40;17.65;;;;;;;10.31;55.55;101806.66;4910247;28;124030;-72
2021/04/20 00:29:08;;;;;;;27.80;19.60;;;;;;;10.27;55.55;101795.25;4903599;28;114172;-72
2021/04/20 00:31:34;;;;;;;25.77;18.92;;;;;;;10.25;55.78;101802.38;4915806;28;114508;-73
2021/04/20 00:34:01;;;;;;;19.23;13.43;;;;;;;10.19;55.34;101807.84;4910513;28;124494;-73
2021/04/20 00:36:28;;;;;;;15.77;12.23;;;;;;;10.14;55.42;101804.44;4904848;28;124036;-73
2021/04/20 00:38:54;;;;;;;47.20;14.52;;;;;;;10.07;55.56;101802.88;4899884;28;113545;-73
2021/04/20 00:41:23;;;;;;;104.97;21.02;;;;;;;10.00;55.65;101806.59;4908231;28;114257;-73
2021/04/20 00:43:49;;;;;;;23.83;19.45;;;;;;;9.94;56.11;101803.22;4911895;28;125209;-73
2021/04/20 00:46:19;;;;;;;170.02;22.35;;;;;;;9.90;55.80;101804.19;4926552;28;124184;-72
2021/04/20 00:48:46;;;;;;;24.38;19.80;;;;;;;9.88;55.79;101800.72;4908041;28;116421;-72
2021/04/20 00:51:14;;;;;;;22.50;19.10;;;;;;;9.84;55.99;101801.72;4914948;28;114790;-72
2021/04/20 00:53:41;;;;;;;20.55;16.67;;;;;;;9.80;56.10;101800.06;4902693;28;123940;-72
2021/04/20 00:56:10;;;;;;;19.20;16.15;;;;;;;9.78;55.89;101796.59;4906191;28;123660;-73
2021/04/20 00:58:37;;;;;;;20.48;16.83;;;;;;;9.75;55.85;101791.38;4910528;28;114129;-73
2021/04/20 01:01:05;;;;;;;19.63;16.65;;;;;;;9.71;56.24;101784.44;4906900;28;113418;-74
2021/04/20 01:03:32;;;;;;;23.52;18.52;;;;;;;9.69;56.14;101786.25;4911944;28;123071;-72
2021/04/20 01:06:01;;;;;;;25.33;19.38;;;;;;;9.67;55.98;101793.38;4914075;28;123785;-72
2021/04/20 01:08:28;;;;;;;27.67;20.67;;;;;;;9.66;56.43;101791.63;4911762;28;113972;-73
2021/04/20 01:10:56;;;;;;;31.02;20.25;;;;;;;9.63;56.20;101802.28;4912260;28;113866;-72
2021/04/20 01:13:25;;;;;;;24.50;18.25;;;;;;;9.60;56.22;101791.78;4913637;28;124381;-73
2021/04/20 01:15:53;;;;;;;25.60;17.75;;;;;;;9.57;56.49;101797.13;4909974;28;124644;-73
2021/04/20 01:18:25;;;;;;;28.65;21.05;;;;;;;9.53;56.24;101786.66;4910107;28;114108;-72
2021/04/20 01:20:55;;;;;;;31.05;21.02;;;;;;;9.51;56.10;101792.88;4910842;28;114270;-73
2021/04/20 01:23:40;;;;;;;30.13;21.88;;;;;;;9.45;56.09;101778.03;4900984;28;123931;-73
2021/04/20 01:26:08;;;;;;;29.87;21.43;;;;;;;9.45;56.20;101788.59;4909557;28;124710;-72
2021/04/20 01:28:36;;;;;;;29.08;21.73;;;;;;;9.42;56.57;101782.53;4918473;28;114915;-73
2021/04/20 01:31:04;;;;;;;30.52;22.00;;;;;;;9.39;56.31;101786.13;4912369;28;113997;-73
2021/04/20 01:33:31;;;;;;;28.88;20.63;;;;;;;9.37;56.40;101785.31;4898622;28;123815;-73
2021/04/20 01:35:58;;;;;;;29.50;20.50;;;;;;;9.36;56.26;101788.84;4901459;28;122808;-73
2021/04/20 01:38:29;;;;;;;30.00;22.25;;;;;;;9.34;56.73;101785.38;4905524;28;114902;-73
2021/04/20 01:40:56;;;;;;;29.25;22.05;;;;;;;9.35;56.32;101787.13;4905542;28;112645;-73
2021/04/20 01:43:22;;;;;;;29.33;21.42;;;;;;;9.33;56.72;101781.00;4914801;28;124468;-73
2021/04/20 01:45:49;;;;;;;31.70;21.15;;;;;;;9.33;56.60;101783.66;4899120;28;124603;-72
2021/04/20 01:48:16;;;;;;;31.25;22.27;;;;;;;9.34;56.96;101785.38;4910305;28;113446;-72
2021/04/20 01:50:43;;;;;;;35.60;22.42;;;;;;;9.33;56.50;101783.66;4915697;28;113943;-72
2021/04/20 01:53:09;;;;;;;30.98;22.73;;;;;;;9.33;56.92;101778.34;4908881;28;124788;-72
2021/04/20 01:55:37;;;;;;;29.13;21.13;;;;;;;9.32;56.78;101787.19;4911367;28;124341;-73
2021/04/20 01:58:05;;;;;;;34.67;21.70;;;;;;;9.32;56.73;101787.19;4884414;28;112396;-73
2021/04/20 02:00:36;;;;;;;30.70;22.15;;;;;;;9.29;56.64;101777.56;4913531;28;114307;-72
2021/04/20 02:03:04;;;;;;;28.42;21.52;;;;;;;9.29;56.68;101777.56;4910981;28;123270;-72
2021/04/20 02:05:31;;;;;;;30.45;20.95;;;;;;;9.29;56.22;101776.69;4913655;28;124183;-73
2021/04/20 02:07:58;;;;;;;28.13;21.10;;;;;;;9.27;56.48;101778.53;4911231;28;115227;-72
2021/04/20 02:10:26;;;;;;;29.00;20.73;;;;;;;9.25;56.38;101775.00;4914398;28;114221;-73
2021/04/20 02:12:52;;;;;;;27.45;20.50;;;;;;;9.23;56.20;101779.47;4900235;28;124175;-73
2021/04/20 02:15:22;;;;;;;29.88;21.15;;;;;;;9.20;56.49;101777.78;4904806;28;123933;-72
2021/04/20 02:17:50;;;;;;;28.08;20.48;;;;;;;9.19;56.46;101777.81;4902727;28;116061;-72
2021/04/20 02:20:17;;;;;;;28.98;21.45;;;;;;;9.15;56.20;101780.56;4910543;28;114023;-73
2021/04/20 02:22:45;;;;;;;26.55;19.48;;;;;;;9.13;56.42;101777.03;4910762;28;123782;-73
2021/04/20 02:25:15;;;;;;;28.73;22.10;;;;;;;9.10;56.31;101777.16;4901860;28;123272;-72
2021/04/20 02:27:42;;;;;;;31.02;22.48;;;;;;;9.08;56.13;101778.94;4911672;28;114883;-72
2021/04/20 02:30:10;;;;;;;29.77;21.17;;;;;;;9.06;56.54;101785.16;4911745;28;114082;-72
2021/04/20 02:32:38;;;;;;;32.58;22.95;;;;;;;9.04;56.66;101782.59;4898894;28;123277;-73
2021/04/20 02:35:08;;;;;;;29.63;21.75;;;;;;;9.01;56.39;101777.34;4911798;28;123837;-73
2021/04/20 02:37:36;;;;;;;29.55;21.42;;;;;;;8.99;56.30;101784.44;4909261;28;113753;-73
2021/04/20 02:40:08;;;;;;;28.83;21.65;;;;;;;8.97;56.60;101780.97;4916278;28;113257;-72
2021/04/20 02:42:37;;;;;;;26.80;20.23;;;;;;;8.94;56.55;101786.31;4897388;28;121920;-73
2021/04/20 02:45:06;;;;;;;27.17;19.15;;;;;;;8.91;56.43;101786.38;4911654;28;123970;-72
2021/04/20 02:47:34;;;;;;;25.42;18.80;;;;;;;8.89;56.30;101783.81;4911417;28;114589;-72
2021/04/20 02:50:05;;;;;;;25.23;18.73;;;;;;;8.87;56.28;101784.72;4896364;28;113915;-73
2021/04/20 02:52:33;;;;;;;26.65;18.45;;;;;;;8.83;56.40;101778.63;4897415;28;123591;-73
2021/04/20 02:55:00;;;;;;;27.08;17.73;;;;;;;8.81;56.64;101779.59;4908673;28;123505;-73
2021/04/20 02:57:37;;;;;;;26.33;17.58;;;;;;;8.80;56.85;101783.13;4911558;28;115447;-72
2021/04/20 03:00:11;;;;;;;22.30;15.40;;;;;;;8.77;56.44;101779.66;4844988;28;114111;-72
2021/04/20 03:02:39;;;;;;;19.83;14.13;;;;;;;8.74;56.66;101779.72;4861157;28;123326;-72
2021/04/20 03:05:15;;;;;;;17.35;12.75;;;;;;;8.69;56.58;101773.66;4852943;28;123788;-72
2021/04/20 03:07:43;;;;;;;19.15;13.15;;;;;;;8.68;56.72;101774.59;4871071;28;114195;-72
2021/04/20 03:10:11;;;;;;;16.90;11.27;;;;;;;8.66;56.81;101775.50;4885501;28;114068;-72
2021/04/20 03:12:40;;;;;;;15.35;10.98;;;;;;;8.63;56.66;101771.19;4888174;28;123882;-72
2021/04/20 03:15:10;;;;;;;14.65;10.35;;;;;;;8.62;56.90;101768.56;4872949;28;124616;-73
2021/04/20 03:17:41;;;;;;;16.48;10.48;;;;;;;8.58;56.95;101773.03;4880045;28;113896;-73
2021/04/20 03:20:10;;;;;;;13.68;10.50;;;;;;;8.57;56.97;101768.69;4872173;28;113326;-73
2021/04/20 03:22:40;;;;;;;13.75;10.32;;;;;;;8.56;57.21;101774.84;4875714;28;124650;-72
2021/04/20 03:25:10;;;;;;;13.10;9.40;;;;;;;8.54;57.14;101760.81;4860842;28;123251;-73
2021/04/20 03:27:48;;;;;;;12.52;9.43;;;;;;;8.52;56.96;101767.91;4870181;28;114379;-72
2021/04/20 03:30:17;;;;;;;11.18;8.77;;;;;;;8.47;56.63;101759.19;4887576;28;114045;-72
2021/04/20 03:32:59;;;;;;;14.13;8.95;;;;;;;8.42;56.61;101755.78;4875051;28;124376;-72
2021/04/20 03:35:44;;;;;;;11.70;8.82;;;;;;;8.36;56.50;101756.75;4889553;28;124776;-72
2021/04/20 03:38:32;;;;;;;13.57;9.13;;;;;;;8.30;56.98;101752.47;4885627;28;114028;-73
2021/04/20 03:41:07;;;;;;;13.68;9.48;;;;;;;8.27;56.60;101757.84;4879211;28;113376;-72
2021/04/20 03:43:37;;;;;;;11.95;9.48;;;;;;;8.23;56.81;101755.28;4897301;28;124153;-72
2021/04/20 03:46:12;;;;;;;13.52;9.80;;;;;;;8.19;56.96;101752.72;4878018;28;123938;-72
2021/04/20 03:48:51;;;;;;;15.53;10.27;;;;;;;8.15;56.55;101750.16;4895830;28;113591;-72
2021/04/20 03:51:23;;;;;;;12.65;9.63;;;;;;;8.14;56.55;101751.06;4878439;28;114422;-72
2021/04/20 03:53:52;;;;;;;14.90;10.95;;;;;;;8.12;56.70;101747.59;4865818;28;123922;-72
2021/04/20 03:56:24;;;;;;;21.73;13.70;;;;;;;8.08;56.73;101745.88;4895767;28;123775;-72
2021/04/20 03:58:54;;;;;;;21.20;14.35;;;;;;;8.06;56.72;101747.69;4887332;28;113661;-72
2021/04/20 04:01:22;;;;;;;21.58;14.50;;;;;;;8.03;56.65;101753.06;4865372;28;115081;-72
2021/04/20 04:03:51;;;;;;;24.85;16.05;;;;;;;8.01;57.00;101752.22;4889217;28;124291;-72
2021/04/20 04:06:19;;;;;;;61.55;14.30;;;;;;;7.96;56.71;101747.88;4884657;28;123848;-72
2021/04/20 04:08:48;;;;;;;19.65;13.05;;;;;;;7.91;57.12;101749.75;4887972;28;113871;-72
2021/04/20 04:11:15;;;;;;;21.02;13.75;;;;;;;7.87;56.83;101748.03;4893742;28;113808;-72
2021/04/20 04:13:45;;;;;;;52.35;16.65;;;;;;;7.86;57.10;101751.59;4885138;28;124112;-72
2021/04/20 04:16:13;;;;;;;24.98;15.55;;;;;;;7.85;57.05;101751.63;4884965;28;123652;-72
2021/04/20 04:18:47;;;;;;;23.73;15.00;;;;;;;7.85;57.26;101747.22;4884284;28;114154;-72
2021/04/20 04:21:20;;;;;;;25.80;16.05;;;;;;;7.83;56.95;101751.66;4869769;28;113877;-72
2021/04/20 04:23:56;;;;;;;27.33;15.57;;;;;;;7.82;56.85;101744.66;4882504;28;124153;-73
2021/04/20 04:26:34;;;;;;;25.38;15.13;;;;;;;7.80;56.96;101741.19;4884499;28;123095;-73
2021/04/20 04:29:10;;;;;;;21.35;14.10;;;;;;;7.80;57.25;101742.03;4887967;28;114800;-73
2021/04/20 04:31:40;;;;;;;22.20;13.85;;;;;;;7.78;57.27;101743.84;4882429;28;114016;-73
2021/04/20 04:34:16;;;;;;;25.10;14.65;;;;;;;7.76;56.80;101744.75;4889218;28;123153;-73
2021/04/20 04:36:44;;;;;;;86.53;15.35;;;;;;;7.75;57.18;101743.88;4881356;28;124361;-72
2021/04/20 04:39:16;;;;;;;184.35;19.92;;;;;;;7.74;57.21;101741.28;4884900;28;115201;-73
2021/04/20 04:41:44;;;;;;;93.93;17.42;;;;;;;7.71;57.19;101746.63;4866396;28;114613;-72
2021/04/20 04:44:12;;;;;;;267.48;20.30;;;;;;;7.67;57.01;101751.09;4861276;28;122512;-72
2021/04/20 04:46:45;;;;;;;85.00;17.80;;;;;;;7.63;57.09;101751.16;4889750;28;123899;-72
2021/04/20 04:49:13;;;;;;;65.88;17.85;;;;;;;7.56;57.18;101738.09;4888505;28;114635;-72
2021/04/20 04:51:40;;;;;;;111.90;18.52;;;;;;;7.54;57.69;101755.69;4885745;28;113038;-72
2021/04/20 04:54:13;;;;;;;233.48;22.30;;;;;;;7.50;57.61;101759.28;4893043;28;124779;-72
2021/04/20 04:56:43;;;;;;;81.25;19.27;;;;;;;7.47;57.68;101759.34;4894694;28;124355;-72
2021/04/20 04:59:14;;;;;;;112.53;20.55;;;;;;;7.45;57.75;101755.84;4872426;28;113116;-72
2021/04/20 05:01:41;;;;;;;46.42;19.95;;;;;;;7.45;57.78;101761.13;4889691;28;114585;-72
2021/04/20 05:04:11;;;;;;;43.70;19.42;;;;;;;7.46;57.70;101762.88;4861773;28;123706;-72
2021/04/20 05:06:48;;;;;;;37.35;18.88;;;;;;;7.47;58.02;101756.69;4890922;28;124526;-72
2021/04/20 05:09:20;;;;;;;40.80;20.15;;;;;;;7.49;57.79;101757.53;4881332;28;113854;-72
2021/04/20 05:11:49;;;;;;;45.42;19.95;;;;;;;7.52;57.77;101757.50;4884893;28;114100;-72
2021/04/20 05:14:18;;;;;;;39.47;21.55;;;;;;;7.54;58.06;101755.69;4867207;28;123044;-72
2021/04/20 05:16:47;;;;;;;83.13;24.20;;;;;;;7.56;57.60;101759.19;4859793;28;122536;-72
2021/04/20 05:19:19;;;;;;;50.15;21.10;;;;;;;7.56;57.83;101758.31;4874553;28;113944;-72
2021/04/20 05:21:47;;;;;;;41.55;21.33;;;;;;;7.56;57.78;101753.91;4888047;28;113891;-72
2021/04/20 05:24:14;;;;;;;81.13;22.92;;;;;;;7.55;57.91;101754.81;4886705;28;123797;-73
2021/04/20 05:26:41;;;;;;;54.15;21.40;;;;;;;7.55;58.09;101752.19;4889088;28;124382;-73
2021/04/20 05:29:08;;;;;;;38.50;21.98;;;;;;;7.58;57.92;101767.94;4886474;28;115842;-72
2021/04/20 05:31:35;;;;;;;32.85;20.23;;;;;;;7.60;58.21;101765.25;4859968;28;114827;-72
2021/04/20 05:34:05;;;;;;;34.85;20.98;;;;;;;7.62;58.66;101765.25;4886070;28;124449;-72
2021/04/20 05:36:33;;;;;;;33.97;21.65;;;;;;;7.66;58.31;101769.56;4861038;28;123120;-73
2021/04/20 05:39:09;;;;;;;35.95;21.55;;;;;;;7.68;58.33;101768.63;4882760;28;114379;-73
2021/04/20 05:41:38;;;;;;;34.85;20.85;;;;;;;7.72;58.30;101769.44;4882991;28;115011;-72
2021/04/20 05:44:07;;;;;;;32.40;20.52;;;;;;;7.75;58.31;101764.13;4886197;28;123159;-72
2021/04/20 05:46:39;;;;;;;34.78;22.15;;;;;;;7.79;58.76;101766.66;4890629;28;123966;-72
2021/04/20 05:49:07;;;;;;;36.95;21.73;;;;;;;7.83;58.40;101767.47;4882507;28;114271;-72
2021/04/20 05:51:36;;;;;;;31.48;21.23;;;;;;;7.85;59.02;101768.31;4885138;28;113868;-72
2021/04/20 05:54:04;;;;;;;34.53;21.45;;;;;;;7.89;58.96;101772.66;4876942;28;124154;-72
2021/04/20 05:56:30;;;;;;;34.72;21.83;;;;;;;7.92;58.80;101772.56;4870736;28;123392;-72
2021/04/20 05:58:59;;;;;;;34.80;21.67;;;;;;;7.97;59.13;101770.72;4891583;28;114875;-72
2021/04/20 06:01:28;;;;;;;34.30;22.48;;;;;;;8.02;59.19;101769.75;4873614;28;114177;-72
2021/04/20 06:04:06;;;;;;;33.92;21.08;;;;;;;8.09;59.32;101768.75;4886400;28;124146;-72
2021/04/20 06:06:34;;;;;;;36.85;20.90;;;;;;;8.15;59.57;101768.63;4866701;28;123939;-72
2021/04/20 06:09:02;;;;;;;33.88;21.05;;;;;;;8.23;59.39;101765.81;4872189;28;113628;-71
2021/04/20 06:11:29;;;;;;;37.35;23.13;;;;;;;8.29;59.61;101765.72;4894417;28;113522;-72
2021/04/20 06:13:56;;;;;;;41.85;23.63;;;;;;;8.37;59.84;101759.34;4889118;28;124066;-72
2021/04/20 06:16:23;;;;;;;47.50;27.75;;;;;;;8.48;59.96;101771.50;4888474;28;124652;-72
2021/04/20 06:18:52;;;;;;;47.60;26.95;;;;;;;8.58;60.30;101762.47;4865452;28;113235;-71
2021/04/20 06:21:22;;;;;;;52.08;26.67;;;;;;;8.70;60.21;101767.50;4866872;28;114858;-72
2021/04/20 06:23:50;;;;;;;48.28;27.00;;;;;;;8.82;60.21;101773.41;4892253;28;123957;-72
2021/04/20 06:26:17;;;;;;;47.28;27.92;;;;;;;8.94;60.19;101778.41;4872333;28;123992;-72
2021/04/20 06:28:44;;;;;;;54.83;30.60;;;;;;;9.08;60.49;101784.25;4885171;28;114318;-72
2021/04/20 06:31:14;;;;;;;58.35;31.40;;;;;;;9.20;60.70;101776.91;4878489;28;113901;-72
2021/04/20 06:33:45;;;;;;;57.78;32.88;;;;;;;9.33;60.74;101778.34;4885695;28;124743;-74
2021/04/20 06:36:14;;;;;;;53.00;32.63;;;;;;;9.48;60.63;101777.97;4888337;28;123988;-73
2021/04/20 06:38:41;;;;;;;57.25;34.28;;;;;;;9.63;60.91;101776.72;4882403;28;114689;-73
2021/04/20 06:41:10;;;;;;;57.20;33.40;;;;;;;9.79;61.09;101782.44;4864182;28;113320;-75
2021/04/20 06:44:07;;;;;;;60.25;34.45;;;;;;;9.98;61.14;101784.59;4860495;28;123060;-73
2021/04/20 06:46:46;;;;;;;61.17;37.30;;;;;;;10.16;61.34;101786.75;4881692;28;123145;-73
2021/04/20 06:49:16;;;;;;;61.10;37.42;;;;;;;10.30;61.32;101789.91;4868129;28;113110;-73
2021/04/20 06:51:49;;;;;;;61.80;38.05;;;;;;;10.46;61.23;101773.56;4852433;28;114315;-73
2021/04/20 06:54:46;;;;;;;60.08;36.95;;;;;;;10.64;61.71;101775.69;4865926;28;123456;-74
2021/04/20 06:57:15;;;;;;;59.33;38.33;;;;;;;10.87;61.45;101782.06;4889137;28;125119;-74
2021/04/20 07:00:24;;;;;;;60.90;38.20;;;;;;;11.06;61.63;101785.84;4877372;28;113396;-74
2021/04/20 07:03:00;;;;;;;59.42;37.08;;;;;;;11.29;61.45;101776.28;4885651;28;113577;-75
2021/04/20 07:05:33;;;;;;;57.30;36.60;;;;;;;11.50;61.38;101775.53;4901190;28;122487;-75
2021/04/20 07:08:23;;;;;;;56.55;36.25;;;;;;;11.73;61.36;101771.22;4892295;28;122541;-75
2021/04/20 07:10:50;;;;;;;57.13;36.88;;;;;;;11.97;61.31;101769.53;4890995;28;113649;-75
2021/04/20 07:13:21;;;;;;;52.67;36.13;;;;;;;12.22;61.34;101769.53;4876923;28;115522;-75
2021/04/20 07:15:52;;;;;;;51.53;35.50;;;;;;;12.46;60.89;101772.16;4900957;28;123398;-74
2021/04/20 07:18:29;;;;;;;50.55;35.00;;;;;;;12.66;59.95;101774.94;4902254;28;124066;-75
2021/04/20 07:21:17;;;;;;;52.75;35.70;;;;;;;12.83;59.87;101771.59;4897330;28;113298;-75
2021/04/20 07:23:47;;;;;;;55.40;36.00;;;;;;;12.99;59.44;101766.53;4888902;28;112486;-74
2021/04/20 07:26:43;;;;;;;56.25;37.00;;;;;;;13.13;59.00;101773.97;4884095;28;123427;-74
2021/04/20 07:29:10;;;;;;;;;;;;;;;13.25;59.08;101767.28;4891499;28;123952;-75
2021/04/20 07:32:03;;;;;;;55.88;36.92;;;;;;;13.43;58.93;101766.53;4894423;28;114623;-74
2021/04/20 07:34:39;;;;;;;54.83;37.97;;;;;;;13.62;58.70;101760.44;4899119;28;114065;-74
2021/04/20 07:37:14;;;;;;;55.33;38.25;;;;;;;13.78;58.77;101761.47;4881647;28;123568;-75
2021/04/20 07:40:08;;;;;;;55.50;39.47;;;;;;;13.96;58.73;101759.81;4884500;28;123113;-75
2021/04/20 07:42:46;;;;;;;59.35;39.63;;;;;;;14.14;58.09;101767.91;4862787;28;115190;-75
2021/04/20 07:45:23;;;;;;;61.47;41.67;;;;;;;14.26;57.71;101766.47;4897793;28;113907;-76
2021/04/20 07:47:55;;;;;;;60.00;41.42;;;;;;;14.36;57.65;101773.13;4894256;28;124243;-75
2021/04/20 07:50:27;;;;;;;61.38;42.47;;;;;;;14.47;57.78;101768.16;4873659;28;123751;-74
2021/04/20 07:53:00;;;;;;;60.53;42.20;;;;;;;14.60;57.57;101772.03;4886589;28;114648;-77
2021/04/20 07:55:36;;;;;;;56.80;42.78;;;;;;;14.74;57.42;101767.84;4888353;28;114334;-75
2021/04/20 07:58:05;;;;;;;;;;;;;;;14.86;57.39;101767.25;4886763;28;124868;-74
2021/04/20 08:00:37;;;;;;;67.40;45.40;;;;;;;15.03;57.14;101768.22;4887771;28;123907;-73
2021/04/20 08:03:04;;;;;;;61.95;44.28;;;;;;;15.16;56.87;101764.91;4893222;28;115358;-74
2021/04/20 08:06:08;;;;;;;63.35;44.22;;;;;;;15.31;56.73;101768.59;4872565;28;114427;-74
2021/04/20 08:08:44;;;;;;;62.60;42.90;;;;;;;15.46;56.93;101760.75;4898303;28;123744;-74
2021/04/20 08:11:23;;;;;;;62.50;43.05;;;;;;;15.63;57.13;101763.41;4892214;28;122566;-75
2021/04/20 08:14:08;;;;;;;66.78;44.72;;;;;;;15.81;56.64;101766.97;4869561;28;113187;-74
2021/04/20 08:16:44;;;;;;;59.53;42.45;;;;;;;15.96;55.85;101759.97;4877755;28;114617;-74
2021/04/20 08:19:29;;;;;;;60.13;43.22;;;;;;;16.09;55.22;101758.38;4876047;28;124354;-74
2021/04/20 08:21:57;;;;;;;62.17;42.53;;;;;;;16.17;55.45;101757.09;4875878;28;123299;-74
2021/04/20 08:24:31;;;;;;;60.80;44.13;;;;;;;16.26;54.80;101753.94;4880771;28;114766;-74
2021/04/20 08:27:18;;;;;;;62.58;43.30;;;;;;;16.35;54.78;101756.94;4878807;28;114164;-74
2021/04/20 08:29:48;;;;;;;60.97;42.63;;;;;;;16.41;53.82;101750.41;4886854;28;124174;-74
2021/04/20 08:32:22;;;;;;;58.72;42.00;;;;;;;16.43;53.52;101753.84;4885838;28;122625;-74
2021/04/20 08:34:53;;;;;;;60.72;43.25;;;;;;;16.48;53.69;101751.81;4914528;28;114638;-73
2021/04/20 08:37:34;;;;;;;62.10;42.70;;;;;;;16.57;54.26;101754.91;4888178;28;114454;-74
2021/04/20 08:40:13;;;;;;;51.83;38.83;;;;;;;16.67;53.37;101756.09;4878382;28;123370;-74
2021/04/20 08:43:24;;;;;;;57.15;40.35;;;;;;;16.76;53.42;101752.91;4889697;28;123743;-74
2021/04/20 08:46:15;;;;;;;56.75;40.38;;;;;;;16.89;53.64;101756.63;4890799;28;114171;-74
2021/04/20 08:49:04;;;;;;;58.67;42.15;;;;;;;17.01;53.64;101754.22;4892443;28;113058;-74
2021/04/20 08:51:53;;;;;;;54.28;39.00;;;;;;;17.15;52.88;101750.75;4890037;28;124371;-74
2021/04/20 08:54:37;;;;;;;54.88;39.90;;;;;;;17.27;53.06;101756.25;4889001;28;124706;-74
2021/04/20 08:57:15;;;;;;;53.20;39.70;;;;;;;17.38;52.28;101752.06;4879489;28;115537;-74
2021/04/20 09:00:00;;;;;;;53.80;39.35;;;;;;;17.47;52.26;101751.53;4904978;23;115666;-68
2021/04/20 09:03:04;;;;;;;54.50;39.73;;;;;;;17.55;52.16;101749.25;4888635;28;124069;-66
2021/04/20 09:05:43;;;;;;;54.35;40.58;;;;;;;17.65;52.33;101755.78;4908288;28;124500;-66
2021/04/20 09:08:16;;;;;;;49.50;37.70;;;;;;;17.75;51.79;101749.88;4909558;28;114334;-66
2021/04/20 09:10:50;;;;;;;51.50;38.83;;;;;;;17.81;51.27;101749.50;4909772;28;114610;-66
2021/04/20 09:13:22;;;;;;;48.92;37.15;;;;;;;17.87;51.64;101749.16;4894653;28;124110;-66
2021/04/20 09:15:53;;;;;;;46.42;36.10;;;;;;;17.99;51.57;101743.03;4890972;28;123399;-66
2021/04/20 09:18:33;;;;;;;47.42;35.53;;;;;;;18.12;51.72;101744.94;4876293;28;114186;-66
2021/04/20 09:21:09;;;;;;;47.50;36.78;;;;;;;18.22;51.36;101738.91;4876156;28;114035;-66
2021/04/20 09:24:05;;;;;;;42.08;34.17;;;;;;;18.34;50.58;101748.00;4882785;28;124064;-66
2021/04/20 09:27:10;;;;;;;45.77;32.87;;;;;;;18.45;50.55;101740.13;4894813;28;123939;-66
2021/04/20 09:29:54;;;;;;;42.45;31.27;;;;;;;18.54;50.50;101741.38;4903536;28;113903;-66
2021/04/20 09:32:30;;;;;;;38.00;29.33;;;;;;;18.63;49.69;101743.47;4872925;28;113122;-66
2021/04/20 09:34:59;;;;;;;36.95;28.38;;;;;;;18.73;49.21;101749.09;4872603;28;124935;-67
2021/04/20 09:37:28;;;;;;;38.20;29.83;;;;;;;18.82;48.49;101743.16;4887577;28;123602;-66
2021/04/20 09:39:56;;;;;;;42.35;31.05;;;;;;;18.86;47.83;101744.69;4887970;28;114075;-67
2021/04/20 09:42:24;;;;;;;40.50;32.35;;;;;;;18.88;47.20;101746.41;4887067;28;113917;-67
2021/04/20 09:45:22;;;;;;;37.90;28.90;;;;;;;18.85;46.89;101748.34;4876938;28;124076;-67
2021/04/20 09:48:12;;;;;;;38.65;29.75;;;;;;;18.88;46.60;101746.41;4902065;28;123937;-66
2021/04/20 09:50:57;;;;;;;37.53;28.83;;;;;;;18.94;47.00;101746.00;4883184;28;115233;-66
2021/04/20 09:53:37;;;;;;;37.90;28.85;;;;;;;19.05;47.51;101743.47;4904258;28;115040;-67
2021/04/20 09:56:42;;;;;;;34.80;27.52;;;;;;;19.17;47.49;101742.63;4883002;28;123257;-67
2021/04/20 09:59:42;;;;;;;34.15;25.92;;;;;;;19.34;46.24;101743.31;4884790;28;124054;-67
2021/04/20 10:02:26;;;;;;;37.40;26.60;;;;;;;19.44;46.12;101739.06;4903838;28;96628;-66
2021/04/20 10:05:11;;;;;;;38.85;28.60;;;;;;;19.54;46.38;101745.50;4885606;28;114423;-66
2021/04/20 10:07:41;;;;;;;42.13;28.33;;;;;;;19.63;45.40;101739.50;4903346;28;123270;-66
2021/04/20 10:10:49;;;;;;;30.13;22.80;;;;;;;19.68;44.50;101746.38;4893982;28;124689;-67
2021/04/20 10:13:31;;;;;;;31.30;24.58;;;;;;;19.75;43.66;101739.66;4863944;28;114608;-66
2021/04/20 10:16:10;;;;;;;31.13;25.58;;;;;;;19.80;44.75;101734.84;4875869;28;113887;-67
2021/04/20 10:19:10;;;;;;;30.92;24.38;;;;;;;19.90;44.73;101729.66;4872622;28;124930;-67
2021/04/20 10:22:00;;;;;;;32.15;24.85;;;;;;;20.02;43.24;101732.34;4898353;28;122657;-66
2021/04/20 10:24:30;;;;;;;28.15;23.58;;;;;;;20.09;42.93;101729.22;4891768;28;114820;-67
2021/04/20 10:27:06;;;;;;;27.35;22.60;;;;;;;20.15;42.57;101732.31;4890839;28;112432;-67
2021/04/20 10:29:56;;;;;;;28.90;23.27;;;;;;;20.21;42.89;101731.91;4891578;28;124983;-67
2021/04/20 10:32:35;;;;;;;31.70;26.42;;;;;;;20.31;43.29;101718.63;4892737;28;124104;-67
2021/04/20 10:35:04;;;;;;;28.25;22.30;;;;;;;20.42;41.57;101718.72;4887305;28;115019;-67
2021/04/20 10:37:44;;;;;;;29.70;21.38;;;;;;;20.48;40.92;101724.63;4888992;28;113964;-67
2021/04/20 10:40:35;;;;;;;28.48;23.25;;;;;;;20.47;40.19;101722.91;4895795;28;124616;-67
2021/04/20 10:43:07;;;;;;;30.25;23.30;;;;;;;20.49;40.71;101723.66;4907929;28;124001;-67
2021/04/20 10:45:35;;;;;;;30.55;21.88;;;;;;;20.50;40.17;101717.31;4880534;28;115364;-67
2021/04/20 10:48:03;;;;;;;25.10;19.90;;;;;;;20.49;39.22;101710.19;4880710;28;114366;-66
2021/04/20 10:50:33;;;;;;;22.88;19.73;;;;;;;20.44;38.80;101724.00;4883920;28;124744;-67
2021/04/20 10:53:07;;;;;;;24.05;20.50;;;;;;;20.38;39.01;101709.16;4888190;28;124036;-66
2021/04/20 10:55:38;;;;;;;24.02;19.83;;;;;;;20.37;38.62;101712.81;4898701;28;113282;-67
2021/04/20 10:58:08;;;;;;;25.65;20.27;;;;;;;20.34;38.64;101714.84;4888640;28;113463;-67
2021/04/20 11:00:36;;;;;;;23.80;20.42;;;;;;;20.35;37.98;101709.38;4887755;28;123843;-67
2021/04/20 11:03:04;;;;;;;25.20;21.52;;;;;;;20.34;38.01;101704.97;4883060;28;123830;-67
2021/04/20 11:05:31;;;;;;;25.27;21.13;;;;;;;20.34;37.91;101706.78;4889095;28;114987;-67
2021/04/20 11:07:58;;;;;;;28.60;22.52;;;;;;;20.32;37.98;101701.50;4885961;28;111986;-66
2021/04/20 11:10:35;;;;;;;26.30;20.90;;;;;;;20.30;38.29;101706.16;4887405;28;122319;-67
2021/04/20 11:13:04;;;;;;;26.65;21.70;;;;;;;20.31;37.80;101707.88;4881486;28;123524;-67
2021/04/20 11:15:31;;;;;;;24.58;20.42;;;;;;;20.32;37.73;101698.81;4892483;28;113794;-67
2021/04/20 11:18:06;;;;;;;24.27;19.95;;;;;;;20.33;37.87;101699.69;4885272;28;113290;-67
2021/04/20 11:20:45;;;;;;;26.23;21.30;;;;;;;20.37;37.80;101691.28;4881350;28;123970;-67
2021/04/20 11:23:22;;;;;;;29.23;22.75;;;;;;;20.43;38.21;101696.19;4886023;28;123127;-67
2021/04/20 11:25:54;;;;;;;22.02;19.00;;;;;;;20.52;37.26;101702.75;4884149;28;115958;-66
2021/04/20 11:28:46;;;;;;;23.30;19.63;;;;;;;20.58;38.23;101694.22;4888168;28;114919;-67
2021/04/20 11:31:43;;;;;;;23.33;19.55;;;;;;;20.67;37.14;101687.34;4888803;28;123456;-67
2021/04/20 11:34:23;;;;;;;20.33;17.92;;;;;;;20.67;36.95;101681.97;4887783;28;123827;-68
2021/04/20 11:37:02;;;;;;;23.30;20.02;;;;;;;20.65;36.77;101677.66;4905607;28;115185;-67